sensor_id;sensor_type;location;lat;lon;timestamp;pressure;altitude;pressure_sealevel;temperature;humidity
23616;BME280;11985;49.404;7.734;2023-01-23T00:03:33;98521.03;;;-0.60;100.00
23616;BME280;11985;49.404;7.734;2023-01-23T00:08:37;98526.63;;;-0.66;100.00
23616;BME280;11985;49.404;7.734;2023-01-23T00:13:38;98519.38;;;-0.73;100.00
23616;BME280;11985;49.404;7.734;2023-01-23T00:18:40;98516.38;;;-0.80;100.00
23616;BME280;11985;49.404;7.734;2023-01-23T00:23:46;98516.78;;;-0.86;100.00
23616;BME280;11985;49.404;7.734;2023-01-23T00:28:48;98512.69;;;-0.89;100.00
23616;BME280;11985;49.404;7.734;2023-01-23T00:33:53;98527.16;;;-0.86;100.00
23616;BME280;11985;49.404;7.734;2023-01-23T00:38:57;98518.66;;;-0.88;100.00
23616;BME280;11985;49.404;7.734;2023-01-23T00:43:58;98511.31;;;-0.94;100.00
23616;BME280;11985;49.404;7.734;2023-01-23T00:49:00;98519.91;;;-0.94;100.00
23616;BME280;11985;49.404;7.734;2023-01-23T00:54:03;98532.22;;;-0.97;100.00
23616;BME280;11985;49.404;7.734;2023-01-23T00:59:04;98526.09;;;-0.96;100.00
23616;BME280;11985;49.404;7.734;2023-01-23T01:04:06;98524.44;;;-0.97;100.00
23616;BME280;11985;49.404;7.734;2023-01-23T01:09:09;98521.16;;;-0.99;100.00
23616;BME280;11985;49.404;7.734;2023-01-23T01:14:10;98515.88;;;-0.98;100.00
23616;BME280;11985;49.404;7.734;2023-01-23T01:19:13;98524.44;;;-0.97;100.00
23616;BME280;11985;49.404;7.734;2023-01-23T01:24:16;98539.03;;;-0.96;100.00
23616;BME280;11985;49.404;7.734;2023-01-23T01:29:18;98531.09;;;-0.93;100.00
23616;BME280;11985;49.404;7.734;2023-01-23T01:34:19;98532.72;;;-0.92;100.00
23616;BME280;11985;49.404;7.734;2023-01-23T01:39:22;98530.25;;;-0.94;100.00
23616;BME280;11985;49.404;7.734;2023-01-23T01:44:24;98538.91;;;-0.95;100.00
23616;BME280;11985;49.404;7.734;2023-01-23T01:49:29;98548.53;;;-0.97;100.00
23616;BME280;11985;49.404;7.734;2023-01-23T01:54:36;98539.34;;;-1.01;100.00
23616;BME280;11985;49.404;7.734;2023-01-23T01:59:43;98538.31;;;-0.98;100.00
23616;BME280;11985;49.404;7.734;2023-01-23T02:04:48;98543.25;;;-0.95;100.00
23616;BME280;11985;49.404;7.734;2023-01-23T02:09:54;98546.06;;;-0.98;100.00
23616;BME280;11985;49.404;7.734;2023-01-23T02:14:55;98553.94;;;-1.00;100.00
23616;BME280;11985;49.404;7.734;2023-01-23T02:20:02;98552.19;;;-0.99;100.00
23616;BME280;11985;49.404;7.734;2023-01-23T02:25:15;98554.78;;;-0.99;100.00
23616;BME280;11985;49.404;7.734;2023-01-23T02:30:20;98553.00;;;-0.99;100.00
23616;BME280;11985;49.404;7.734;2023-01-23T02:35:25;98558.88;;;-0.97;100.00
23616;BME280;11985;49.404;7.734;2023-01-23T02:40:32;98561.59;;;-0.98;100.00
23616;BME280;11985;49.404;7.734;2023-01-23T02:45:37;98558.25;;;-1.00;100.00
23616;BME280;11985;49.404;7.734;2023-01-23T02:50:39;98566.41;;;-1.07;100.00
23616;BME280;11985;49.404;7.734;2023-01-23T02:55:42;98562.72;;;-1.02;100.00
23616;BME280;11985;49.404;7.734;2023-01-23T03:00:46;98562.91;;;-1.06;100.00
23616;BME280;11985;49.404;7.734;2023-01-23T03:05:48;98560.31;;;-1.06;100.00
23616;BME280;11985;49.404;7.734;2023-01-23T03:10:50;98562.19;;;-1.08;100.00
23616;BME280;11985;49.404;7.734;2023-01-23T03:15:53;98568.47;;;-1.12;100.00
23616;BME280;11985;49.404;7.734;2023-01-23T03:21:00;98565.00;;;-1.11;100.00
23616;BME280;11985;49.404;7.734;2023-01-23T03:26:01;98575.31;;;-1.11;100.00
23616;BME280;11985;49.404;7.734;2023-01-23T03:31:04;98578.41;;;-1.06;100.00
23616;BME280;11985;49.404;7.734;2023-01-23T03:36:06;98573.34;;;-1.07;100.00
23616;BME280;11985;49.404;7.734;2023-01-23T03:41:08;98581.00;;;-1.06;100.00
23616;BME280;11985;49.404;7.734;2023-01-23T03:46:29;98572.53;;;-1.08;100.00
23616;BME280;11985;49.404;7.734;2023-01-23T03:51:31;98582.88;;;-1.08;100.00
23616;BME280;11985;49.404;7.734;2023-01-23T03:56:32;98568.06;;;-1.06;100.00
23616;BME280;11985;49.404;7.734;2023-01-23T04:01:36;98578.22;;;-1.02;100.00
23616;BME280;11985;49.404;7.734;2023-01-23T04:06:37;98577.22;;;-1.00;100.00
23616;BME280;11985;49.404;7.734;2023-01-23T04:11:39;98586.38;;;-1.09;100.00
23616;BME280;11985;49.404;7.734;2023-01-23T04:16:42;98586.56;;;-1.12;100.00
23616;BME280;11985;49.404;7.734;2023-01-23T04:21:43;98586.50;;;-1.10;100.00
23616;BME280;11985;49.404;7.734;2023-01-23T04:26:45;98580.50;;;-1.11;100.00
23616;BME280;11985;49.404;7.734;2023-01-23T04:31:48;98577.81;;;-1.09;100.00
23616;BME280;11985;49.404;7.734;2023-01-23T04:36:49;98581.09;;;-1.07;100.00
23616;BME280;11985;49.404;7.734;2023-01-23T04:41:51;98566.41;;;-1.07;100.00
23616;BME280;11985;49.404;7.734;2023-01-23T04:46:54;98566.63;;;-1.10;100.00
23616;BME280;11985;49.404;7.734;2023-01-23T04:51:55;98559.81;;;-1.11;100.00
23616;BME280;11985;49.404;7.734;2023-01-23T04:56:57;98563.88;;;-0.94;100.00
23616;BME280;11985;49.404;7.734;2023-01-23T05:02:00;98565.53;;;-0.80;100.00
23616;BME280;11985;49.404;7.734;2023-01-23T05:07:02;98571.88;;;-0.71;100.00
23616;BME280;11985;49.404;7.734;2023-01-23T05:12:05;98578.28;;;-0.77;100.00
23616;BME280;11985;49.404;7.734;2023-01-23T05:17:08;98581.97;;;-0.68;100.00
23616;BME280;11985;49.404;7.734;2023-01-23T05:22:09;98595.16;;;-0.59;100.00
23616;BME280;11985;49.404;7.734;2023-01-23T05:27:11;98602.69;;;-0.56;100.00
23616;BME280;11985;49.404;7.734;2023-01-23T05:32:14;98622.78;;;-0.46;100.00
23616;BME280;11985;49.404;7.734;2023-01-23T05:37:16;98616.78;;;-0.47;100.00
23616;BME280;11985;49.404;7.734;2023-01-23T05:42:17;98614.78;;;-0.56;100.00
23616;BME280;11985;49.404;7.734;2023-01-23T05:47:20;98617.78;;;-0.62;100.00
23616;BME280;11985;49.404;7.734;2023-01-23T05:52:22;98612.00;;;-0.66;100.00
23616;BME280;11985;49.404;7.734;2023-01-23T05:57:23;98612.44;;;-0.72;100.00
23616;BME280;11985;49.404;7.734;2023-01-23T06:02:26;98617.69;;;-0.73;100.00
23616;BME280;11985;49.404;7.734;2023-01-23T06:07:28;98625.44;;;-0.73;100.00
23616;BME280;11985;49.404;7.734;2023-01-23T06:12:29;98626.50;;;-0.76;100.00
23616;BME280;11985;49.404;7.734;2023-01-23T06:17:32;98627.53;;;-0.66;100.00
23616;BME280;11985;49.404;7.734;2023-01-23T06:22:33;98642.44;;;-0.57;100.00
23616;BME280;11985;49.404;7.734;2023-01-23T06:27:35;98635.84;;;-0.61;100.00
23616;BME280;11985;49.404;7.734;2023-01-23T06:32:38;98642.66;;;-0.60;100.00
23616;BME280;11985;49.404;7.734;2023-01-23T06:37:40;98651.94;;;-0.70;100.00
23616;BME280;11985;49.404;7.734;2023-01-23T06:42:42;98645.94;;;-0.83;100.00
23616;BME280;11985;49.404;7.734;2023-01-23T06:47:45;98648.91;;;-0.89;100.00
23616;BME280;11985;49.404;7.734;2023-01-23T06:52:46;98645.28;;;-0.87;100.00
23616;BME280;11985;49.404;7.734;2023-01-23T06:57:48;98646.13;;;-0.86;100.00
23616;BME280;11985;49.404;7.734;2023-01-23T07:02:50;98645.28;;;-0.87;100.00
23616;BME280;11985;49.404;7.734;2023-01-23T07:07:52;98655.44;;;-0.84;100.00
23616;BME280;11985;49.404;7.734;2023-01-23T07:12:54;98655.25;;;-0.68;100.00
23616;BME280;11985;49.404;7.734;2023-01-23T07:17:57;98656.31;;;-0.58;100.00
23616;BME280;11985;49.404;7.734;2023-01-23T07:22:58;98662.09;;;-0.67;100.00
23616;BME280;11985;49.404;7.734;2023-01-23T07:28:00;98668.41;;;-0.71;100.00
23616;BME280;11985;49.404;7.734;2023-01-23T07:33:03;98682.56;;;-0.76;100.00
23616;BME280;11985;49.404;7.734;2023-01-23T07:38:04;98688.97;;;-0.82;100.00
23616;BME280;11985;49.404;7.734;2023-01-23T07:43:06;98711.84;;;-0.89;100.00
23616;BME280;11985;49.404;7.734;2023-01-23T07:48:09;98718.94;;;-0.92;100.00
23616;BME280;11985;49.404;7.734;2023-01-23T07:53:10;98722.53;;;-0.95;100.00
23616;BME280;11985;49.404;7.734;2023-01-23T07:58:12;98718.50;;;-0.99;100.00
23616;BME280;11985;49.404;7.734;2023-01-23T08:03:15;98722.66;;;-0.96;100.00
23616;BME280;11985;49.404;7.734;2023-01-23T08:08:17;98732.75;;;-0.79;100.00
23616;BME280;11985;49.404;7.734;2023-01-23T08:13:18;98725.94;;;-0.67;100.00
23616;BME280;11985;49.404;7.734;2023-01-23T08:18:21;98722.53;;;-0.68;100.00
23616;BME280;11985;49.404;7.734;2023-01-23T08:23:23;98728.53;;;-0.67;100.00
23616;BME280;11985;49.404;7.734;2023-01-23T08:28:26;98725.41;;;-0.72;100.00
23616;BME280;11985;49.404;7.734;2023-01-23T08:33:29;98728.09;;;-0.74;100.00
23616;BME280;11985;49.404;7.734;2023-01-23T08:38:32;98724.97;;;-0.79;100.00
23616;BME280;11985;49.404;7.734;2023-01-23T08:43:34;98720.19;;;-0.85;100.00
23616;BME280;11985;49.404;7.734;2023-01-23T08:48:37;98713.56;;;-0.89;100.00
23616;BME280;11985;49.404;7.734;2023-01-23T08:53:39;98723.91;;;-0.89;100.00
23616;BME280;11985;49.404;7.734;2023-01-23T08:58:41;98724.44;;;-0.84;100.00
23616;BME280;11985;49.404;7.734;2023-01-23T09:03:44;98731.03;;;-0.66;100.00
23616;BME280;11985;49.404;7.734;2023-01-23T09:08:46;98729.69;;;-0.71;100.00
23616;BME280;11985;49.404;7.734;2023-01-23T09:13:48;98740.09;;;-0.73;100.00
23616;BME280;11985;49.404;7.734;2023-01-23T09:18:53;98729.16;;;-0.76;100.00
23616;BME280;11985;49.404;7.734;2023-01-23T09:23:55;98731.50;;;-0.73;100.00
23616;BME280;11985;49.404;7.734;2023-01-23T09:28:56;98742.00;;;-0.62;100.00
23616;BME280;11985;49.404;7.734;2023-01-23T09:33:59;98738.28;;;-0.58;100.00
23616;BME280;11985;49.404;7.734;2023-01-23T09:39:02;98738.13;;;-0.42;100.00
23616;BME280;11985;49.404;7.734;2023-01-23T09:44:07;98742.50;;;-0.30;100.00
23616;BME280;11985;49.404;7.734;2023-01-23T09:49:18;98737.84;;;-0.25;100.00
23616;BME280;11985;49.404;7.734;2023-01-23T09:54:30;98740.25;;;-0.22;100.00
23616;BME280;11985;49.404;7.734;2023-01-23T09:59:35;98745.41;;;-0.22;100.00
23616;BME280;11985;49.404;7.734;2023-01-23T10:04:38;98736.69;;;-0.34;100.00
23616;BME280;11985;49.404;7.734;2023-01-23T10:09:52;98739.84;;;-0.56;100.00
23616;BME280;11985;49.404;7.734;2023-01-23T10:15:06;98730.94;;;-0.64;100.00
23616;BME280;11985;49.404;7.734;2023-01-23T10:20:22;98729.34;;;-0.67;100.00
23616;BME280;11985;49.404;7.734;2023-01-23T10:25:31;98730.09;;;-0.65;100.00
23616;BME280;11985;49.404;7.734;2023-01-23T10:30:38;98735.41;;;-0.54;100.00
23616;BME280;11985;49.404;7.734;2023-01-23T10:35:48;98731.09;;;-0.40;100.00
23616;BME280;11985;49.404;7.734;2023-01-23T10:40:50;98732.56;;;-0.23;100.00
23616;BME280;11985;49.404;7.734;2023-01-23T10:46:11;98726.56;;;-0.11;100.00
23616;BME280;11985;49.404;7.734;2023-01-23T10:51:42;98725.13;;;-0.15;100.00
23616;BME280;11985;49.404;7.734;2023-01-23T10:56:48;98731.13;;;-0.15;100.00
23616;BME280;11985;49.404;7.734;2023-01-23T11:01:57;98734.00;;;-0.19;100.00
23616;BME280;11985;49.404;7.734;2023-01-23T11:07:04;98735.13;;;-0.36;100.00
23616;BME280;11985;49.404;7.734;2023-01-23T11:12:14;98717.19;;;-0.52;100.00
23616;BME280;11985;49.404;7.734;2023-01-23T11:17:20;98723.59;;;-0.58;100.00
23616;BME280;11985;49.404;7.734;2023-01-23T11:22:27;98715.13;;;-0.60;100.00
23616;BME280;11985;49.404;7.734;2023-01-23T11:27:29;98717.28;;;-0.54;100.00
23616;BME280;11985;49.404;7.734;2023-01-23T11:32:34;98717.41;;;-0.55;100.00
23616;BME280;11985;49.404;7.734;2023-01-23T11:37:41;98710.94;;;-0.62;100.00
23616;BME280;11985;49.404;7.734;2023-01-23T11:42:43;98713.75;;;-0.65;100.00
23616;BME280;11985;49.404;7.734;2023-01-23T11:48:08;98718.09;;;-0.66;100.00
23616;BME280;11985;49.404;7.734;2023-01-23T11:53:21;98714.59;;;-0.65;100.00
23616;BME280;11985;49.404;7.734;2023-01-23T11:58:36;98702.47;;;-0.51;100.00
23616;BME280;11985;49.404;7.734;2023-01-23T12:04:13;98707.88;;;-0.42;100.00
23616;BME280;11985;49.404;7.734;2023-01-23T12:09:23;98705.59;;;-0.46;100.00
23616;BME280;11985;49.404;7.734;2023-01-23T12:14:31;98711.00;;;-0.49;100.00
23616;BME280;11985;49.404;7.734;2023-01-23T12:19:48;98707.13;;;-0.57;100.00
23616;BME280;11985;49.404;7.734;2023-01-23T12:25:04;98711.38;;;-0.56;100.00
23616;BME280;11985;49.404;7.734;2023-01-23T12:35:51;98692.13;;;-0.51;100.00
23616;BME280;11985;49.404;7.734;2023-01-23T12:41:12;98681.38;;;-0.45;100.00
23616;BME280;11985;49.404;7.734;2023-01-23T12:46:18;98684.50;;;-0.40;100.00
23616;BME280;11985;49.404;7.734;2023-01-23T12:51:28;98689.88;;;-0.43;100.00
23616;BME280;11985;49.404;7.734;2023-01-23T12:56:35;98675.78;;;-0.39;100.00
23616;BME280;11985;49.404;7.734;2023-01-23T13:01:48;98671.66;;;-0.29;100.00
23616;BME280;11985;49.404;7.734;2023-01-23T13:07:00;98668.75;;;-0.24;100.00
23616;BME280;11985;49.404;7.734;2023-01-23T13:12:13;98659.22;;;-0.24;100.00
23616;BME280;11985;49.404;7.734;2023-01-23T13:17:34;98665.47;;;-0.27;100.00
23616;BME280;11985;49.404;7.734;2023-01-23T13:22:36;98655.41;;;-0.31;100.00
23616;BME280;11985;49.404;7.734;2023-01-23T13:27:44;98654.47;;;-0.43;100.00
23616;BME280;11985;49.404;7.734;2023-01-23T13:32:46;98664.00;;;-0.43;100.00
23616;BME280;11985;49.404;7.734;2023-01-23T13:37:48;98667.53;;;-0.44;100.00
23616;BME280;11985;49.404;7.734;2023-01-23T13:42:52;98658.59;;;-0.40;100.00
23616;BME280;11985;49.404;7.734;2023-01-23T13:48:08;98658.59;;;-0.40;100.00
23616;BME280;11985;49.404;7.734;2023-01-23T13:53:32;98675.81;;;-0.27;100.00
23616;BME280;11985;49.404;7.734;2023-01-23T13:58:53;98666.09;;;-0.10;100.00
23616;BME280;11985;49.404;7.734;2023-01-23T14:03:57;98654.47;;;-0.05;100.00
23616;BME280;11985;49.404;7.734;2023-01-23T14:09:20;98649.50;;;-0.08;100.00
23616;BME280;11985;49.404;7.734;2023-01-23T14:14:24;98646.81;;;-0.19;100.00
23616;BME280;11985;49.404;7.734;2023-01-23T14:19:51;98629.09;;;-0.25;100.00
23616;BME280;11985;49.404;7.734;2023-01-23T14:24:55;98637.06;;;-0.28;100.00
23616;BME280;11985;49.404;7.734;2023-01-23T14:30:00;98640.59;;;-0.29;100.00
23616;BME280;11985;49.404;7.734;2023-01-23T14:35:14;98631.88;;;-0.28;100.00
23616;BME280;11985;49.404;7.734;2023-01-23T14:40:18;98648.28;;;-0.28;100.00
23616;BME280;11985;49.404;7.734;2023-01-23T14:45:21;98643.69;;;-0.24;100.00
23616;BME280;11985;49.404;7.734;2023-01-23T14:50:24;98647.03;;;-0.22;100.00
23616;BME280;11985;49.404;7.734;2023-01-23T14:55:29;98649.19;;;-0.16;100.00
23616;BME280;11985;49.404;7.734;2023-01-23T15:00:33;98654.66;;;-0.08;100.00
23616;BME280;11985;49.404;7.734;2023-01-23T15:05:35;98663.91;;;-0.04;100.00
23616;BME280;11985;49.404;7.734;2023-01-23T15:10:43;98661.50;;;-0.07;100.00
23616;BME280;11985;49.404;7.734;2023-01-23T15:15:52;98669.56;;;-0.11;100.00
23616;BME280;11985;49.404;7.734;2023-01-23T15:20:57;98662.84;;;-0.14;100.00
23616;BME280;11985;49.404;7.734;2023-01-23T15:26:22;98666.06;;;-0.23;100.00
23616;BME280;11985;49.404;7.734;2023-01-23T15:31:28;98671.25;;;-0.23;100.00
23616;BME280;11985;49.404;7.734;2023-01-23T15:36:30;98662.22;;;-0.30;100.00
23616;BME280;11985;49.404;7.734;2023-01-23T15:41:37;98673.41;;;-0.42;100.00
23616;BME280;11985;49.404;7.734;2023-01-23T15:46:40;98676.00;;;-0.42;100.00
23616;BME280;11985;49.404;7.734;2023-01-23T15:51:42;98672.47;;;-0.41;100.00
23616;BME280;11985;49.404;7.734;2023-01-23T15:56:44;98662.47;;;-0.33;100.00
23616;BME280;11985;49.404;7.734;2023-01-23T16:01:47;98662.34;;;-0.32;100.00
23616;BME280;11985;49.404;7.734;2023-01-23T16:06:48;98668.53;;;-0.34;100.00
23616;BME280;11985;49.404;7.734;2023-01-23T16:11:50;98670.59;;;-0.39;100.00
23616;BME280;11985;49.404;7.734;2023-01-23T16:16:53;98681.38;;;-0.45;100.00
23616;BME280;11985;49.404;7.734;2023-01-23T16:21:55;98673.94;;;-0.50;100.00
23616;BME280;11985;49.404;7.734;2023-01-23T16:26:56;98665.00;;;-0.59;100.00
23616;BME280;11985;49.404;7.734;2023-01-23T16:32:02;98667.78;;;-0.62;100.00
23616;BME280;11985;49.404;7.734;2023-01-23T16:37:04;98668.94;;;-0.66;100.00
23616;BME280;11985;49.404;7.734;2023-01-23T16:42:16;98664.88;;;-0.70;100.00
23616;BME280;11985;49.404;7.734;2023-01-23T16:47:20;98665.53;;;-0.66;100.00
23616;BME280;11985;49.404;7.734;2023-01-23T16:52:23;98664.66;;;-0.67;100.00
23616;BME280;11985;49.404;7.734;2023-01-23T16:57:26;98679.50;;;-0.56;100.00
23616;BME280;11985;49.404;7.734;2023-01-23T17:02:29;98676.84;;;-0.42;100.00
23616;BME280;11985;49.404;7.734;2023-01-23T17:07:31;98681.47;;;-0.34;100.00
23616;BME280;11985;49.404;7.734;2023-01-23T17:12:33;98687.41;;;-0.32;100.00
23616;BME280;11985;49.404;7.734;2023-01-23T17:17:37;98691.53;;;-0.42;100.00
23616;BME280;11985;49.404;7.734;2023-01-23T17:22:40;98682.59;;;-0.51;100.00
23616;BME280;11985;49.404;7.734;2023-01-23T17:27:42;98684.59;;;-0.55;100.00
23616;BME280;11985;49.404;7.734;2023-01-23T17:32:46;98695.13;;;-0.58;100.00
23616;BME280;11985;49.404;7.734;2023-01-23T17:37:49;98700.53;;;-0.61;100.00
23616;BME280;11985;49.404;7.734;2023-01-23T17:42:51;98699.78;;;-0.63;100.00
23616;BME280;11985;49.404;7.734;2023-01-23T17:47:54;98695.63;;;-0.65;100.00
23616;BME280;11985;49.404;7.734;2023-01-23T17:52:56;98701.66;;;-0.65;100.00
23616;BME280;11985;49.404;7.734;2023-01-23T17:57:57;98697.72;;;-0.58;100.00
23616;BME280;11985;49.404;7.734;2023-01-23T18:03:02;98698.13;;;-0.51;100.00
23616;BME280;11985;49.404;7.734;2023-01-23T18:08:04;98712.44;;;-0.45;100.00
23616;BME280;11985;49.404;7.734;2023-01-23T18:13:15;98712.66;;;-0.48;100.00
23616;BME280;11985;49.404;7.734;2023-01-23T18:18:24;98712.66;;;-0.48;100.00
23616;BME280;11985;49.404;7.734;2023-01-23T18:23:30;98714.31;;;-0.47;100.00
23616;BME280;11985;49.404;7.734;2023-01-23T18:28:40;98717.19;;;-0.52;100.00
23616;BME280;11985;49.404;7.734;2023-01-23T18:33:55;98720.81;;;-0.55;100.00
23616;BME280;11985;49.404;7.734;2023-01-23T18:39:30;98727.75;;;-0.55;100.00
23616;BME280;11985;49.404;7.734;2023-01-23T18:44:35;98714.91;;;-0.57;100.00
23616;BME280;11985;49.404;7.734;2023-01-23T18:49:39;98720.38;;;-0.61;100.00
23616;BME280;11985;49.404;7.734;2023-01-23T18:54:44;98715.19;;;-0.61;100.00
23616;BME280;11985;49.404;7.734;2023-01-23T18:59:54;98724.66;;;-0.47;100.00
23616;BME280;11985;49.404;7.734;2023-01-23T19:05:19;98737.72;;;-0.36;100.00
23616;BME280;11985;49.404;7.734;2023-01-23T19:10:23;98741.25;;;-0.37;100.00
23616;BME280;11985;49.404;7.734;2023-01-23T19:15:33;98745.59;;;-0.38;100.00
23616;BME280;11985;49.404;7.734;2023-01-23T19:20:44;98738.72;;;-0.51;100.00
23616;BME280;11985;49.404;7.734;2023-01-23T19:25:47;98748.66;;;-0.58;100.00
23616;BME280;11985;49.404;7.734;2023-01-23T19:30:50;98759.00;;;-0.58;100.00
23616;BME280;11985;49.404;7.734;2023-01-23T19:35:53;98750.59;;;-0.62;100.00
23616;BME280;11985;49.404;7.734;2023-01-23T19:40:55;98763.53;;;-0.62;100.00
23616;BME280;11985;49.404;7.734;2023-01-23T19:45:58;98758.56;;;-0.65;100.00
23616;BME280;11985;49.404;7.734;2023-01-23T19:51:01;98763.53;;;-0.62;100.00
23616;BME280;11985;49.404;7.734;2023-01-23T19:56:03;98762.53;;;-0.59;100.00
23616;BME280;11985;49.404;7.734;2023-01-23T20:01:15;98757.13;;;-0.56;100.00
23616;BME280;11985;49.404;7.734;2023-01-23T20:06:21;98775.16;;;-0.55;100.00
23616;BME280;11985;49.404;7.734;2023-01-23T20:11:22;98774.22;;;-0.54;100.00
23616;BME280;11985;49.404;7.734;2023-01-23T20:16:24;98770.06;;;-0.56;100.00
23616;BME280;11985;49.404;7.734;2023-01-23T20:21:27;98759.63;;;-0.55;100.00
23616;BME280;11985;49.404;7.734;2023-01-23T20:26:28;98757.78;;;-0.52;100.00
23616;BME280;11985;49.404;7.734;2023-01-23T20:31:30;98768.31;;;-0.56;100.00
23616;BME280;11985;49.404;7.734;2023-01-23T20:36:34;98752.78;;;-0.56;100.00
23616;BME280;11985;49.404;7.734;2023-01-23T20:41:35;98762.31;;;-0.56;100.00
23616;BME280;11985;49.404;7.734;2023-01-23T20:46:37;98762.53;;;-0.59;100.00
23616;BME280;11985;49.404;7.734;2023-01-23T20:51:40;98752.78;;;-0.56;100.00
23616;BME280;11985;49.404;7.734;2023-01-23T20:56:44;98754.88;;;-0.48;100.00
23616;BME280;11985;49.404;7.734;2023-01-23T21:01:46;98760.63;;;-0.30;100.00
23616;BME280;11985;49.404;7.734;2023-01-23T21:07:06;98761.88;;;-0.23;100.00
23616;BME280;11985;49.404;7.734;2023-01-23T21:12:08;98762.78;;;-0.24;100.00
23616;BME280;11985;49.404;7.734;2023-01-23T21:17:09;98782.25;;;-0.31;100.00
23616;BME280;11985;49.404;7.734;2023-01-23T21:22:12;98770.66;;;-0.38;100.00
23616;BME280;11985;49.404;7.734;2023-01-23T21:27:15;98768.78;;;-0.36;100.00
23616;BME280;11985;49.404;7.734;2023-01-23T21:32:17;98773.66;;;-0.44;100.00
23616;BME280;11985;49.404;7.734;2023-01-23T21:37:21;98768.75;;;-0.49;100.00
23616;BME280;11985;49.404;7.734;2023-01-23T21:42:23;98776.31;;;-0.46;100.00
23616;BME280;11985;49.404;7.734;2023-01-23T21:47:25;98781.00;;;-0.38;100.00
23616;BME280;11985;49.404;7.734;2023-01-23T21:52:28;98790.63;;;-0.40;100.00
23616;BME280;11985;49.404;7.734;2023-01-23T21:57:30;98782.44;;;-0.34;100.00
23616;BME280;11985;49.404;7.734;2023-01-23T22:02:31;98784.97;;;-0.20;100.00
23616;BME280;11985;49.404;7.734;2023-01-23T22:07:34;98788.28;;;-0.18;100.00
23616;BME280;11985;49.404;7.734;2023-01-23T22:12:36;98797.00;;;-0.19;100.00
23616;BME280;11985;49.404;7.734;2023-01-23T22:17:37;98792.03;;;-0.22;100.00
23616;BME280;11985;49.404;7.734;2023-01-23T22:22:40;98797.16;;;-0.35;100.00
23616;BME280;11985;49.404;7.734;2023-01-23T22:27:42;98797.56;;;-0.41;100.00
23616;BME280;11985;49.404;7.734;2023-01-23T22:32:43;98795.78;;;-0.40;100.00
23616;BME280;11985;49.404;7.734;2023-01-23T22:37:46;98796.72;;;-0.41;100.00
23616;BME280;11985;49.404;7.734;2023-01-23T22:42:47;98789.25;;;-0.46;100.00
23616;BME280;11985;49.404;7.734;2023-01-23T22:47:49;98792.78;;;-0.47;100.00
23616;BME280;11985;49.404;7.734;2023-01-23T22:52:52;98793.81;;;-0.49;100.00
23616;BME280;11985;49.404;7.734;2023-01-23T22:57:54;98780.13;;;-0.51;100.00
23616;BME280;11985;49.404;7.734;2023-01-23T23:02:55;98788.09;;;-0.55;100.00
23616;BME280;11985;49.404;7.734;2023-01-23T23:07:58;98788.19;;;-0.56;100.00
23616;BME280;11985;49.404;7.734;2023-01-23T23:13:00;98787.34;;;-0.57;100.00
23616;BME280;11985;49.404;7.734;2023-01-23T23:18:02;98780.53;;;-0.58;100.00
23616;BME280;11985;49.404;7.734;2023-01-23T23:23:04;98775.16;;;-0.55;100.00
23616;BME280;11985;49.404;7.734;2023-01-23T23:28:06;98784.59;;;-0.54;100.00
23616;BME280;11985;49.404;7.734;2023-01-23T23:33:08;98784.59;;;-0.54;100.00
23616;BME280;11985;49.404;7.734;2023-01-23T23:38:11;98779.31;;;-0.52;100.00
23616;BME280;11985;49.404;7.734;2023-01-23T23:43:13;98792.34;;;-0.54;100.00
23616;BME280;11985;49.404;7.734;2023-01-23T23:48:14;98788.00;;;-0.53;100.00
23616;BME280;11985;49.404;7.734;2023-01-23T23:53:17;98788.81;;;-0.52;100.00
23616;BME280;11985;49.404;7.734;2023-01-23T23:58:19;98795.13;;;-0.57;100.00
